sensor_id;sensor_type;location;lat;lon;timestamp;temperature;humidity
29353;DHT22;16344;50.364;8.944;2022-10-16T00:02:19;16.30;1.00
29353;DHT22;16344;50.364;8.944;2022-10-16T00:04:44;16.10;1.00
29353;DHT22;16344;50.364;8.944;2022-10-16T00:07:10;16.10;1.00
29353;DHT22;16344;50.364;8.944;2022-10-16T00:09:35;16.10;1.00
29353;DHT22;16344;50.364;8.944;2022-10-16T00:12:01;16.10;1.00
29353;DHT22;16344;50.364;8.944;2022-10-16T00:14:29;16.00;1.00
29353;DHT22;16344;50.364;8.944;2022-10-16T00:16:54;16.10;1.00
29353;DHT22;16344;50.364;8.944;2022-10-16T00:19:20;16.00;1.00
29353;DHT22;16344;50.364;8.944;2022-10-16T00:21:45;16.20;1.00
29353;DHT22;16344;50.364;8.944;2022-10-16T00:24:11;16.10;1.00
29353;DHT22;16344;50.364;8.944;2022-10-16T00:26:38;16.10;1.00
29353;DHT22;16344;50.364;8.944;2022-10-16T00:29:03;16.20;1.00
29353;DHT22;16344;50.364;8.944;2022-10-16T00:31:29;16.20;1.00
29353;DHT22;16344;50.364;8.944;2022-10-16T00:33:55;16.10;1.00
29353;DHT22;16344;50.364;8.944;2022-10-16T00:36:23;16.20;1.00
29353;DHT22;16344;50.364;8.944;2022-10-16T00:38:53;16.20;1.00
29353;DHT22;16344;50.364;8.944;2022-10-16T00:41:20;16.30;1.00
29353;DHT22;16344;50.364;8.944;2022-10-16T00:44:01;16.30;1.00
29353;DHT22;16344;50.364;8.944;2022-10-16T00:49:02;16.30;1.00
29353;DHT22;16344;50.364;8.944;2022-10-16T00:51:33;16.30;1.00
29353;DHT22;16344;50.364;8.944;2022-10-16T00:54:01;16.40;1.00
29353;DHT22;16344;50.364;8.944;2022-10-16T00:56:27;16.50;1.00
29353;DHT22;16344;50.364;8.944;2022-10-16T00:58:53;16.60;1.00
29353;DHT22;16344;50.364;8.944;2022-10-16T01:01:18;16.60;1.00
29353;DHT22;16344;50.364;8.944;2022-10-16T01:03:44;16.50;1.00
29353;DHT22;16344;50.364;8.944;2022-10-16T01:09:08;16.50;1.00
29353;DHT22;16344;50.364;8.944;2022-10-16T01:11:44;16.60;1.00
29353;DHT22;16344;50.364;8.944;2022-10-16T01:14:48;16.50;1.00
29353;DHT22;16344;50.364;8.944;2022-10-16T01:17:30;16.60;1.00
29353;DHT22;16344;50.364;8.944;2022-10-16T01:20:24;16.60;1.00
29353;DHT22;16344;50.364;8.944;2022-10-16T01:28:41;16.80;1.00
29353;DHT22;16344;50.364;8.944;2022-10-16T01:31:07;16.80;1.00
29353;DHT22;16344;50.364;8.944;2022-10-16T01:33:40;16.70;1.00
29353;DHT22;16344;50.364;8.944;2022-10-16T01:36:13;16.80;1.00
29353;DHT22;16344;50.364;8.944;2022-10-16T01:38:41;16.80;1.00
29353;DHT22;16344;50.364;8.944;2022-10-16T01:41:30;16.80;1.00
29353;DHT22;16344;50.364;8.944;2022-10-16T01:44:26;17.00;1.00
29353;DHT22;16344;50.364;8.944;2022-10-16T01:46:52;17.00;1.00
29353;DHT22;16344;50.364;8.944;2022-10-16T01:49:20;17.00;1.00
29353;DHT22;16344;50.364;8.944;2022-10-16T01:51:50;16.90;1.00
29353;DHT22;16344;50.364;8.944;2022-10-16T01:54:19;17.00;1.00
29353;DHT22;16344;50.364;8.944;2022-10-16T01:56:46;17.00;1.00
29353;DHT22;16344;50.364;8.944;2022-10-16T01:59:15;17.00;1.00
29353;DHT22;16344;50.364;8.944;2022-10-16T02:01:45;17.00;1.00
29353;DHT22;16344;50.364;8.944;2022-10-16T02:04:24;17.00;1.00
29353;DHT22;16344;50.364;8.944;2022-10-16T02:06:52;17.10;1.00
29353;DHT22;16344;50.364;8.944;2022-10-16T02:09:18;17.10;1.00
29353;DHT22;16344;50.364;8.944;2022-10-16T02:11:44;17.10;1.00
29353;DHT22;16344;50.364;8.944;2022-10-16T02:14:09;17.20;1.00
29353;DHT22;16344;50.364;8.944;2022-10-16T02:16:40;17.00;1.00
29353;DHT22;16344;50.364;8.944;2022-10-16T02:19:07;17.00;1.00
29353;DHT22;16344;50.364;8.944;2022-10-16T02:22:00;17.10;1.00
29353;DHT22;16344;50.364;8.944;2022-10-16T02:24:44;16.90;1.00
29353;DHT22;16344;50.364;8.944;2022-10-16T02:27:35;16.90;1.00
29353;DHT22;16344;50.364;8.944;2022-10-16T02:30:32;16.90;1.00
29353;DHT22;16344;50.364;8.944;2022-10-16T02:32:55;16.90;1.00
29353;DHT22;16344;50.364;8.944;2022-10-16T02:35:23;16.90;1.00
29353;DHT22;16344;50.364;8.944;2022-10-16T02:37:50;16.90;1.00
29353;DHT22;16344;50.364;8.944;2022-10-16T02:40:17;17.00;1.00
29353;DHT22;16344;50.364;8.944;2022-10-16T02:42:43;17.00;1.00
29353;DHT22;16344;50.364;8.944;2022-10-16T02:45:10;17.00;1.00
29353;DHT22;16344;50.364;8.944;2022-10-16T02:47:36;17.10;1.00
29353;DHT22;16344;50.364;8.944;2022-10-16T02:50:02;17.10;1.00
29353;DHT22;16344;50.364;8.944;2022-10-16T02:52:28;17.00;1.00
29353;DHT22;16344;50.364;8.944;2022-10-16T02:54:53;16.80;1.00
29353;DHT22;16344;50.364;8.944;2022-10-16T02:57:19;16.70;1.00
29353;DHT22;16344;50.364;8.944;2022-10-16T02:59:44;16.80;1.00
29353;DHT22;16344;50.364;8.944;2022-10-16T03:02:10;16.60;1.00
29353;DHT22;16344;50.364;8.944;2022-10-16T03:04:36;16.70;1.00
29353;DHT22;16344;50.364;8.944;2022-10-16T03:07:02;16.60;1.00
29353;DHT22;16344;50.364;8.944;2022-10-16T03:09:27;16.60;1.00
29353;DHT22;16344;50.364;8.944;2022-10-16T03:11:53;16.60;1.00
29353;DHT22;16344;50.364;8.944;2022-10-16T03:14:18;16.60;1.00
29353;DHT22;16344;50.364;8.944;2022-10-16T03:16:44;16.60;1.00
29353;DHT22;16344;50.364;8.944;2022-10-16T03:19:09;16.70;1.00
29353;DHT22;16344;50.364;8.944;2022-10-16T03:21:35;16.60;1.00
29353;DHT22;16344;50.364;8.944;2022-10-16T03:24:00;16.60;1.00
29353;DHT22;16344;50.364;8.944;2022-10-16T03:26:26;16.60;1.00
29353;DHT22;16344;50.364;8.944;2022-10-16T03:28:51;16.60;1.00
29353;DHT22;16344;50.364;8.944;2022-10-16T03:31:17;16.70;1.00
29353;DHT22;16344;50.364;8.944;2022-10-16T03:33:42;16.70;1.00
29353;DHT22;16344;50.364;8.944;2022-10-16T03:36:08;16.60;1.00
29353;DHT22;16344;50.364;8.944;2022-10-16T03:38:34;16.50;1.00
29353;DHT22;16344;50.364;8.944;2022-10-16T03:40:59;16.50;1.00
29353;DHT22;16344;50.364;8.944;2022-10-16T03:43:25;16.30;1.00
29353;DHT22;16344;50.364;8.944;2022-10-16T03:45:51;16.40;1.00
29353;DHT22;16344;50.364;8.944;2022-10-16T03:48:17;16.60;1.00
29353;DHT22;16344;50.364;8.944;2022-10-16T03:50:43;16.50;1.00
29353;DHT22;16344;50.364;8.944;2022-10-16T03:53:08;16.70;1.00
29353;DHT22;16344;50.364;8.944;2022-10-16T03:55:34;16.70;1.00
29353;DHT22;16344;50.364;8.944;2022-10-16T03:58:00;16.70;1.00
29353;DHT22;16344;50.364;8.944;2022-10-16T04:00:26;16.70;1.00
29353;DHT22;16344;50.364;8.944;2022-10-16T04:02:52;16.80;1.00
29353;DHT22;16344;50.364;8.944;2022-10-16T04:05:17;16.90;1.00
29353;DHT22;16344;50.364;8.944;2022-10-16T04:07:43;16.70;1.00
29353;DHT22;16344;50.364;8.944;2022-10-16T04:10:08;16.80;1.00
29353;DHT22;16344;50.364;8.944;2022-10-16T04:12:34;16.90;1.00
29353;DHT22;16344;50.364;8.944;2022-10-16T04:15:00;16.90;1.00
29353;DHT22;16344;50.364;8.944;2022-10-16T04:17:25;16.90;1.00
29353;DHT22;16344;50.364;8.944;2022-10-16T04:19:51;17.00;1.00
29353;DHT22;16344;50.364;8.944;2022-10-16T04:22:16;16.90;1.00
29353;DHT22;16344;50.364;8.944;2022-10-16T04:24:42;17.00;1.00
29353;DHT22;16344;50.364;8.944;2022-10-16T04:27:07;16.90;1.00
29353;DHT22;16344;50.364;8.944;2022-10-16T04:29:33;16.90;1.00
29353;DHT22;16344;50.364;8.944;2022-10-16T04:31:58;17.00;1.00
29353;DHT22;16344;50.364;8.944;2022-10-16T04:34:24;17.10;1.00
29353;DHT22;16344;50.364;8.944;2022-10-16T04:36:49;17.00;1.00
29353;DHT22;16344;50.364;8.944;2022-10-16T04:39:15;17.00;1.00
29353;DHT22;16344;50.364;8.944;2022-10-16T04:41:41;16.80;1.00
29353;DHT22;16344;50.364;8.944;2022-10-16T04:44:07;16.90;1.00
29353;DHT22;16344;50.364;8.944;2022-10-16T04:46:33;16.90;1.00
29353;DHT22;16344;50.364;8.944;2022-10-16T04:48:59;16.80;1.00
29353;DHT22;16344;50.364;8.944;2022-10-16T04:51:24;16.80;1.00
29353;DHT22;16344;50.364;8.944;2022-10-16T04:53:51;16.80;1.00
29353;DHT22;16344;50.364;8.944;2022-10-16T04:56:17;16.90;1.00
29353;DHT22;16344;50.364;8.944;2022-10-16T04:58:42;17.00;1.00
29353;DHT22;16344;50.364;8.944;2022-10-16T05:01:08;17.10;1.00
29353;DHT22;16344;50.364;8.944;2022-10-16T05:03:33;17.20;1.00
29353;DHT22;16344;50.364;8.944;2022-10-16T05:05:59;17.00;1.00
29353;DHT22;16344;50.364;8.944;2022-10-16T05:08:25;17.10;1.00
29353;DHT22;16344;50.364;8.944;2022-10-16T05:10:50;17.10;1.00
29353;DHT22;16344;50.364;8.944;2022-10-16T05:13:16;17.10;1.00
29353;DHT22;16344;50.364;8.944;2022-10-16T05:15:41;17.10;1.00
29353;DHT22;16344;50.364;8.944;2022-10-16T05:18:08;17.00;1.00
29353;DHT22;16344;50.364;8.944;2022-10-16T05:20:34;17.00;1.00
29353;DHT22;16344;50.364;8.944;2022-10-16T05:22:59;17.00;1.00
29353;DHT22;16344;50.364;8.944;2022-10-16T05:25:25;16.90;1.00
29353;DHT22;16344;50.364;8.944;2022-10-16T05:27:51;16.90;1.00
29353;DHT22;16344;50.364;8.944;2022-10-16T05:30:17;17.00;1.00
29353;DHT22;16344;50.364;8.944;2022-10-16T05:32:47;16.90;1.00
29353;DHT22;16344;50.364;8.944;2022-10-16T05:35:14;16.90;1.00
29353;DHT22;16344;50.364;8.944;2022-10-16T05:37:39;16.90;1.00
29353;DHT22;16344;50.364;8.944;2022-10-16T05:40:05;16.80;1.00
29353;DHT22;16344;50.364;8.944;2022-10-16T05:42:31;16.80;1.00
29353;DHT22;16344;50.364;8.944;2022-10-16T05:44:56;16.90;1.00
29353;DHT22;16344;50.364;8.944;2022-10-16T05:47:22;16.80;1.00
29353;DHT22;16344;50.364;8.944;2022-10-16T05:49:48;16.80;1.00
29353;DHT22;16344;50.364;8.944;2022-10-16T05:52:13;16.80;1.00
29353;DHT22;16344;50.364;8.944;2022-10-16T05:54:39;16.70;1.00
29353;DHT22;16344;50.364;8.944;2022-10-16T05:57:04;16.40;1.00
29353;DHT22;16344;50.364;8.944;2022-10-16T05:59:31;16.30;1.00
29353;DHT22;16344;50.364;8.944;2022-10-16T06:01:57;16.40;1.00
29353;DHT22;16344;50.364;8.944;2022-10-16T06:04:22;16.60;1.00
29353;DHT22;16344;50.364;8.944;2022-10-16T06:06:48;16.60;1.00
29353;DHT22;16344;50.364;8.944;2022-10-16T06:09:14;16.60;1.00
29353;DHT22;16344;50.364;8.944;2022-10-16T06:11:39;16.70;1.00
29353;DHT22;16344;50.364;8.944;2022-10-16T06:14:05;16.70;1.00
29353;DHT22;16344;50.364;8.944;2022-10-16T06:16:33;16.60;1.00
29353;DHT22;16344;50.364;8.944;2022-10-16T06:18:59;16.60;1.00
29353;DHT22;16344;50.364;8.944;2022-10-16T06:21:26;16.80;1.00
29353;DHT22;16344;50.364;8.944;2022-10-16T06:23:53;16.70;1.00
29353;DHT22;16344;50.364;8.944;2022-10-16T06:26:21;16.70;1.00
29353;DHT22;16344;50.364;8.944;2022-10-16T06:28:48;16.70;1.00
29353;DHT22;16344;50.364;8.944;2022-10-16T06:31:14;16.70;1.00
29353;DHT22;16344;50.364;8.944;2022-10-16T06:33:40;16.80;1.00
29353;DHT22;16344;50.364;8.944;2022-10-16T06:36:10;16.80;1.00
29353;DHT22;16344;50.364;8.944;2022-10-16T06:38:37;16.80;1.00
29353;DHT22;16344;50.364;8.944;2022-10-16T06:41:03;16.80;1.00
29353;DHT22;16344;50.364;8.944;2022-10-16T06:43:30;16.80;1.00
29353;DHT22;16344;50.364;8.944;2022-10-16T06:46:01;17.00;1.00
29353;DHT22;16344;50.364;8.944;2022-10-16T06:48:28;16.90;1.00
29353;DHT22;16344;50.364;8.944;2022-10-16T06:53:23;16.80;1.00
29353;DHT22;16344;50.364;8.944;2022-10-16T06:55:48;16.80;1.00
29353;DHT22;16344;50.364;8.944;2022-10-16T06:58:14;16.90;1.00
29353;DHT22;16344;50.364;8.944;2022-10-16T07:00:39;16.80;1.00
29353;DHT22;16344;50.364;8.944;2022-10-16T07:03:05;16.80;1.00
29353;DHT22;16344;50.364;8.944;2022-10-16T07:05:30;16.70;1.00
29353;DHT22;16344;50.364;8.944;2022-10-16T07:07:56;16.60;1.00
29353;DHT22;16344;50.364;8.944;2022-10-16T07:10:21;16.60;1.00
29353;DHT22;16344;50.364;8.944;2022-10-16T07:12:49;16.60;1.00
29353;DHT22;16344;50.364;8.944;2022-10-16T07:15:15;16.60;1.00
29353;DHT22;16344;50.364;8.944;2022-10-16T07:17:40;16.80;1.00
29353;DHT22;16344;50.364;8.944;2022-10-16T07:20:06;16.80;1.00
29353;DHT22;16344;50.364;8.944;2022-10-16T07:22:32;16.80;1.00
29353;DHT22;16344;50.364;8.944;2022-10-16T07:24:58;16.90;1.00
29353;DHT22;16344;50.364;8.944;2022-10-16T07:27:24;17.00;1.00
29353;DHT22;16344;50.364;8.944;2022-10-16T07:29:49;17.10;1.00
29353;DHT22;16344;50.364;8.944;2022-10-16T07:32:15;17.00;1.00
29353;DHT22;16344;50.364;8.944;2022-10-16T07:34:41;17.00;1.00
29353;DHT22;16344;50.364;8.944;2022-10-16T07:37:07;17.00;1.00
29353;DHT22;16344;50.364;8.944;2022-10-16T07:39:33;17.00;1.00
29353;DHT22;16344;50.364;8.944;2022-10-16T07:41:58;17.00;1.00
29353;DHT22;16344;50.364;8.944;2022-10-16T07:44:24;17.10;1.00
29353;DHT22;16344;50.364;8.944;2022-10-16T07:46:50;17.10;1.00
29353;DHT22;16344;50.364;8.944;2022-10-16T07:49:15;17.10;1.00
29353;DHT22;16344;50.364;8.944;2022-10-16T07:51:41;17.20;1.00
29353;DHT22;16344;50.364;8.944;2022-10-16T07:54:08;17.20;1.00
29353;DHT22;16344;50.364;8.944;2022-10-16T07:56:34;17.30;1.00
29353;DHT22;16344;50.364;8.944;2022-10-16T07:58:59;17.20;1.00
29353;DHT22;16344;50.364;8.944;2022-10-16T08:01:25;17.30;1.00
29353;DHT22;16344;50.364;8.944;2022-10-16T08:03:51;17.40;1.00
29353;DHT22;16344;50.364;8.944;2022-10-16T08:06:18;17.40;1.00
29353;DHT22;16344;50.364;8.944;2022-10-16T08:08:44;17.40;1.00
29353;DHT22;16344;50.364;8.944;2022-10-16T08:11:10;17.50;1.00
29353;DHT22;16344;50.364;8.944;2022-10-16T08:13:35;17.70;1.00
29353;DHT22;16344;50.364;8.944;2022-10-16T08:16:01;17.60;1.00
29353;DHT22;16344;50.364;8.944;2022-10-16T08:18:27;17.60;1.00
29353;DHT22;16344;50.364;8.944;2022-10-16T08:20:57;17.60;1.00
29353;DHT22;16344;50.364;8.944;2022-10-16T08:23:24;17.60;1.00
29353;DHT22;16344;50.364;8.944;2022-10-16T08:25:51;17.60;1.00
29353;DHT22;16344;50.364;8.944;2022-10-16T08:28:18;17.60;1.00
29353;DHT22;16344;50.364;8.944;2022-10-16T08:30:44;17.60;1.00
29353;DHT22;16344;50.364;8.944;2022-10-16T08:33:09;17.60;1.00
29353;DHT22;16344;50.364;8.944;2022-10-16T08:35:35;17.70;1.00
29353;DHT22;16344;50.364;8.944;2022-10-16T08:38:03;17.70;1.00
29353;DHT22;16344;50.364;8.944;2022-10-16T08:40:31;17.60;1.00
29353;DHT22;16344;50.364;8.944;2022-10-16T08:50:58;17.50;1.00
29353;DHT22;16344;50.364;8.944;2022-10-16T08:53:31;17.40;1.00
29353;DHT22;16344;50.364;8.944;2022-10-16T08:56:00;17.50;1.00
29353;DHT22;16344;50.364;8.944;2022-10-16T08:58:29;17.40;1.00
29353;DHT22;16344;50.364;8.944;2022-10-16T09:01:01;17.40;1.00
29353;DHT22;16344;50.364;8.944;2022-10-16T09:03:51;17.40;1.00
29353;DHT22;16344;50.364;8.944;2022-10-16T09:07:39;17.50;1.00
29353;DHT22;16344;50.364;8.944;2022-10-16T09:12:12;17.40;1.00
29353;DHT22;16344;50.364;8.944;2022-10-16T09:14:55;17.40;1.00
29353;DHT22;16344;50.364;8.944;2022-10-16T09:20:38;17.40;1.00
29353;DHT22;16344;50.364;8.944;2022-10-16T09:23:25;17.50;1.00
29353;DHT22;16344;50.364;8.944;2022-10-16T09:25:52;17.60;1.00
29353;DHT22;16344;50.364;8.944;2022-10-16T09:28:18;17.70;1.00
29353;DHT22;16344;50.364;8.944;2022-10-16T09:30:44;17.70;1.00
29353;DHT22;16344;50.364;8.944;2022-10-16T09:33:12;17.80;1.00
29353;DHT22;16344;50.364;8.944;2022-10-16T09:35:50;17.90;1.00
29353;DHT22;16344;50.364;8.944;2022-10-16T09:38:42;18.00;1.00
29353;DHT22;16344;50.364;8.944;2022-10-16T09:41:18;18.00;1.00
29353;DHT22;16344;50.364;8.944;2022-10-16T09:43:56;17.90;1.00
29353;DHT22;16344;50.364;8.944;2022-10-16T09:46:31;17.90;1.00
29353;DHT22;16344;50.364;8.944;2022-10-16T09:48:59;18.00;1.00
29353;DHT22;16344;50.364;8.944;2022-10-16T09:51:35;17.90;1.00
29353;DHT22;16344;50.364;8.944;2022-10-16T09:56:36;17.90;1.00
29353;DHT22;16344;50.364;8.944;2022-10-16T09:59:12;18.00;1.00
29353;DHT22;16344;50.364;8.944;2022-10-16T10:01:50;18.00;1.00
29353;DHT22;16344;50.364;8.944;2022-10-16T10:04:23;17.90;1.00
29353;DHT22;16344;50.364;8.944;2022-10-16T10:06:51;17.90;1.00
29353;DHT22;16344;50.364;8.944;2022-10-16T10:09:35;17.70;1.00
29353;DHT22;16344;50.364;8.944;2022-10-16T10:12:04;17.70;1.00
29353;DHT22;16344;50.364;8.944;2022-10-16T10:14:39;17.60;1.00
29353;DHT22;16344;50.364;8.944;2022-10-16T10:17:20;17.60;1.00
29353;DHT22;16344;50.364;8.944;2022-10-16T10:19:47;17.60;1.00
29353;DHT22;16344;50.364;8.944;2022-10-16T10:25:15;17.60;1.00
29353;DHT22;16344;50.364;8.944;2022-10-16T10:30:23;17.80;1.00
29353;DHT22;16344;50.364;8.944;2022-10-16T10:33:09;17.90;1.00
29353;DHT22;16344;50.364;8.944;2022-10-16T10:44:01;18.10;1.00
29353;DHT22;16344;50.364;8.944;2022-10-16T10:52:13;18.00;1.00
29353;DHT22;16344;50.364;8.944;2022-10-16T11:00:21;18.40;1.00
29353;DHT22;16344;50.364;8.944;2022-10-16T11:05:56;18.50;1.00
29353;DHT22;16344;50.364;8.944;2022-10-16T11:08:48;18.50;1.00
29353;DHT22;16344;50.364;8.944;2022-10-16T11:11:20;18.40;1.00
29353;DHT22;16344;50.364;8.944;2022-10-16T11:14:02;18.40;1.00
29353;DHT22;16344;50.364;8.944;2022-10-16T11:16:33;18.40;1.00
29353;DHT22;16344;50.364;8.944;2022-10-16T11:21:37;18.50;1.00
29353;DHT22;16344;50.364;8.944;2022-10-16T11:24:17;18.60;1.00
29353;DHT22;16344;50.364;8.944;2022-10-16T11:26:46;18.80;1.00
29353;DHT22;16344;50.364;8.944;2022-10-16T11:29:20;18.70;1.00
29353;DHT22;16344;50.364;8.944;2022-10-16T11:31:55;18.70;1.00
29353;DHT22;16344;50.364;8.944;2022-10-16T11:34:41;18.80;1.00
29353;DHT22;16344;50.364;8.944;2022-10-16T11:37:31;18.90;1.00
29353;DHT22;16344;50.364;8.944;2022-10-16T11:40:09;18.80;1.00
29353;DHT22;16344;50.364;8.944;2022-10-16T11:42:46;18.90;1.00
29353;DHT22;16344;50.364;8.944;2022-10-16T11:45:36;18.80;1.00
29353;DHT22;16344;50.364;8.944;2022-10-16T11:48:24;18.90;1.00
29353;DHT22;16344;50.364;8.944;2022-10-16T11:50:58;18.70;1.00
29353;DHT22;16344;50.364;8.944;2022-10-16T11:55:57;18.60;1.00
29353;DHT22;16344;50.364;8.944;2022-10-16T11:58:45;18.60;1.00
29353;DHT22;16344;50.364;8.944;2022-10-16T12:01:28;18.80;1.00
29353;DHT22;16344;50.364;8.944;2022-10-16T12:06:42;18.80;1.00
29353;DHT22;16344;50.364;8.944;2022-10-16T12:11:45;18.70;1.00
29353;DHT22;16344;50.364;8.944;2022-10-16T12:19:25;18.50;1.00
29353;DHT22;16344;50.364;8.944;2022-10-16T12:21:52;18.40;1.00
29353;DHT22;16344;50.364;8.944;2022-10-16T12:24:36;18.40;1.00
29353;DHT22;16344;50.364;8.944;2022-10-16T12:27:05;18.50;1.00
29353;DHT22;16344;50.364;8.944;2022-10-16T12:29:44;18.60;1.00
29353;DHT22;16344;50.364;8.944;2022-10-16T12:35:00;18.80;1.00
29353;DHT22;16344;50.364;8.944;2022-10-16T12:37:33;18.90;1.00
29353;DHT22;16344;50.364;8.944;2022-10-16T12:40:00;18.90;1.00
29353;DHT22;16344;50.364;8.944;2022-10-16T12:42:36;19.20;1.00
29353;DHT22;16344;50.364;8.944;2022-10-16T12:45:34;19.20;1.00
29353;DHT22;16344;50.364;8.944;2022-10-16T12:48:01;19.30;1.00
29353;DHT22;16344;50.364;8.944;2022-10-16T12:50:36;19.30;1.00
29353;DHT22;16344;50.364;8.944;2022-10-16T12:53:15;19.20;1.00
29353;DHT22;16344;50.364;8.944;2022-10-16T12:56:05;19.40;1.00
29353;DHT22;16344;50.364;8.944;2022-10-16T13:02:06;19.70;1.00
29353;DHT22;16344;50.364;8.944;2022-10-16T13:05:18;19.80;1.00
29353;DHT22;16344;50.364;8.944;2022-10-16T13:07:59;19.90;1.00
29353;DHT22;16344;50.364;8.944;2022-10-16T13:19:26;20.20;1.00
29353;DHT22;16344;50.364;8.944;2022-10-16T13:22:15;20.20;1.00
29353;DHT22;16344;50.364;8.944;2022-10-16T13:30:25;20.30;1.00
29353;DHT22;16344;50.364;8.944;2022-10-16T13:33:04;20.40;1.00
29353;DHT22;16344;50.364;8.944;2022-10-16T13:35:32;20.40;1.00
29353;DHT22;16344;50.364;8.944;2022-10-16T13:38:14;20.30;1.00
29353;DHT22;16344;50.364;8.944;2022-10-16T13:40:54;20.50;1.00
29353;DHT22;16344;50.364;8.944;2022-10-16T13:43:35;20.40;1.00
29353;DHT22;16344;50.364;8.944;2022-10-16T13:46:23;20.40;1.00
29353;DHT22;16344;50.364;8.944;2022-10-16T13:48:59;20.30;1.00
29353;DHT22;16344;50.364;8.944;2022-10-16T13:51:25;20.40;1.00
29353;DHT22;16344;50.364;8.944;2022-10-16T13:53:51;20.30;1.00
29353;DHT22;16344;50.364;8.944;2022-10-16T13:56:19;20.30;1.00
29353;DHT22;16344;50.364;8.944;2022-10-16T13:58:45;20.30;1.00
29353;DHT22;16344;50.364;8.944;2022-10-16T14:01:20;20.40;99.90
29353;DHT22;16344;50.364;8.944;2022-10-16T14:03:48;20.20;99.90
29353;DHT22;16344;50.364;8.944;2022-10-16T14:06:22;20.20;1.00
29353;DHT22;16344;50.364;8.944;2022-10-16T14:09:00;20.30;1.00
29353;DHT22;16344;50.364;8.944;2022-10-16T14:11:27;20.20;1.00
29353;DHT22;16344;50.364;8.944;2022-10-16T14:13:54;20.20;1.00
29353;DHT22;16344;50.364;8.944;2022-10-16T14:16:22;20.30;1.00
29353;DHT22;16344;50.364;8.944;2022-10-16T14:19:01;20.30;1.00
29353;DHT22;16344;50.364;8.944;2022-10-16T14:21:27;20.40;1.00
29353;DHT22;16344;50.364;8.944;2022-10-16T14:23:53;20.30;1.00
29353;DHT22;16344;50.364;8.944;2022-10-16T14:26:25;20.20;99.90
29353;DHT22;16344;50.364;8.944;2022-10-16T14:31:37;20.30;99.90
29353;DHT22;16344;50.364;8.944;2022-10-16T14:34:05;20.30;1.00
29353;DHT22;16344;50.364;8.944;2022-10-16T14:36:48;20.30;1.00
29353;DHT22;16344;50.364;8.944;2022-10-16T14:39:19;20.20;1.00
29353;DHT22;16344;50.364;8.944;2022-10-16T14:41:47;20.30;1.00
29353;DHT22;16344;50.364;8.944;2022-10-16T14:44:13;20.10;1.00
29353;DHT22;16344;50.364;8.944;2022-10-16T14:46:43;20.20;1.00
29353;DHT22;16344;50.364;8.944;2022-10-16T14:51:36;19.90;1.00
29353;DHT22;16344;50.364;8.944;2022-10-16T14:54:02;19.90;1.00
29353;DHT22;16344;50.364;8.944;2022-10-16T14:56:43;19.90;1.00
29353;DHT22;16344;50.364;8.944;2022-10-16T14:59:32;19.80;1.00
29353;DHT22;16344;50.364;8.944;2022-10-16T15:01:59;19.60;1.00
29353;DHT22;16344;50.364;8.944;2022-10-16T15:04:24;19.60;1.00
29353;DHT22;16344;50.364;8.944;2022-10-16T15:06:50;19.70;1.00
29353;DHT22;16344;50.364;8.944;2022-10-16T15:09:16;19.80;1.00
29353;DHT22;16344;50.364;8.944;2022-10-16T15:11:42;19.80;1.00
29353;DHT22;16344;50.364;8.944;2022-10-16T15:14:13;19.90;1.00
29353;DHT22;16344;50.364;8.944;2022-10-16T15:16:39;19.60;1.00
29353;DHT22;16344;50.364;8.944;2022-10-16T15:19:05;19.60;1.00
29353;DHT22;16344;50.364;8.944;2022-10-16T15:21:32;19.40;1.00
29353;DHT22;16344;50.364;8.944;2022-10-16T15:23:58;19.50;1.00
29353;DHT22;16344;50.364;8.944;2022-10-16T15:26:26;19.50;1.00
29353;DHT22;16344;50.364;8.944;2022-10-16T15:28:51;19.20;1.00
29353;DHT22;16344;50.364;8.944;2022-10-16T15:31:17;19.10;1.00
29353;DHT22;16344;50.364;8.944;2022-10-16T15:33:43;19.00;1.00
29353;DHT22;16344;50.364;8.944;2022-10-16T15:36:09;18.90;1.00
29353;DHT22;16344;50.364;8.944;2022-10-16T15:38:35;18.70;1.00
29353;DHT22;16344;50.364;8.944;2022-10-16T15:41:01;18.70;1.00
29353;DHT22;16344;50.364;8.944;2022-10-16T15:43:26;18.80;1.00
29353;DHT22;16344;50.364;8.944;2022-10-16T15:46:09;18.90;1.00
29353;DHT22;16344;50.364;8.944;2022-10-16T15:48:36;19.00;1.00
29353;DHT22;16344;50.364;8.944;2022-10-16T15:51:06;18.90;1.00
29353;DHT22;16344;50.364;8.944;2022-10-16T15:53:31;18.70;1.00
29353;DHT22;16344;50.364;8.944;2022-10-16T15:55:57;18.70;1.00
29353;DHT22;16344;50.364;8.944;2022-10-16T15:58:22;18.70;1.00
29353;DHT22;16344;50.364;8.944;2022-10-16T16:00:55;18.80;1.00
29353;DHT22;16344;50.364;8.944;2022-10-16T16:03:21;18.60;1.00
29353;DHT22;16344;50.364;8.944;2022-10-16T16:05:47;18.60;1.00
29353;DHT22;16344;50.364;8.944;2022-10-16T16:08:12;18.70;1.00
29353;DHT22;16344;50.364;8.944;2022-10-16T16:10:38;18.90;1.00
29353;DHT22;16344;50.364;8.944;2022-10-16T16:13:04;18.70;1.00
29353;DHT22;16344;50.364;8.944;2022-10-16T16:15:29;18.80;1.00
29353;DHT22;16344;50.364;8.944;2022-10-16T16:17:55;18.80;1.00
29353;DHT22;16344;50.364;8.944;2022-10-16T16:20:20;18.80;1.00
29353;DHT22;16344;50.364;8.944;2022-10-16T16:22:46;19.00;1.00
29353;DHT22;16344;50.364;8.944;2022-10-16T16:25:11;19.00;1.00
29353;DHT22;16344;50.364;8.944;2022-10-16T16:27:37;18.90;1.00
29353;DHT22;16344;50.364;8.944;2022-10-16T16:30:05;18.60;1.00
29353;DHT22;16344;50.364;8.944;2022-10-16T16:32:33;18.70;1.00
29353;DHT22;16344;50.364;8.944;2022-10-16T16:34:58;18.80;1.00
29353;DHT22;16344;50.364;8.944;2022-10-16T16:37:24;18.80;1.00
29353;DHT22;16344;50.364;8.944;2022-10-16T16:39:49;18.80;1.00
29353;DHT22;16344;50.364;8.944;2022-10-16T16:42:16;18.60;1.00
29353;DHT22;16344;50.364;8.944;2022-10-16T16:44:41;18.60;1.00
29353;DHT22;16344;50.364;8.944;2022-10-16T16:47:07;18.50;1.00
29353;DHT22;16344;50.364;8.944;2022-10-16T16:49:32;18.30;1.00
29353;DHT22;16344;50.364;8.944;2022-10-16T16:51:58;18.30;1.00
29353;DHT22;16344;50.364;8.944;2022-10-16T16:54:24;18.40;1.00
29353;DHT22;16344;50.364;8.944;2022-10-16T16:56:49;18.20;1.00
29353;DHT22;16344;50.364;8.944;2022-10-16T16:59:18;18.20;1.00
29353;DHT22;16344;50.364;8.944;2022-10-16T17:01:45;18.00;1.00
29353;DHT22;16344;50.364;8.944;2022-10-16T17:04:11;17.90;1.00
29353;DHT22;16344;50.364;8.944;2022-10-16T17:06:37;17.90;1.00
29353;DHT22;16344;50.364;8.944;2022-10-16T17:09:05;18.00;1.00
29353;DHT22;16344;50.364;8.944;2022-10-16T17:11:31;17.80;1.00
29353;DHT22;16344;50.364;8.944;2022-10-16T17:13:58;17.80;1.00
29353;DHT22;16344;50.364;8.944;2022-10-16T17:16:30;17.70;1.00
29353;DHT22;16344;50.364;8.944;2022-10-16T17:18:59;17.70;1.00
29353;DHT22;16344;50.364;8.944;2022-10-16T17:21:25;17.70;1.00
29353;DHT22;16344;50.364;8.944;2022-10-16T17:23:52;17.70;1.00
29353;DHT22;16344;50.364;8.944;2022-10-16T17:26:18;17.60;1.00
29353;DHT22;16344;50.364;8.944;2022-10-16T17:28:44;17.50;1.00
29353;DHT22;16344;50.364;8.944;2022-10-16T17:31:19;17.40;1.00
29353;DHT22;16344;50.364;8.944;2022-10-16T17:33:45;17.50;1.00
29353;DHT22;16344;50.364;8.944;2022-10-16T17:36:12;17.60;1.00
29353;DHT22;16344;50.364;8.944;2022-10-16T17:38:41;17.70;1.00
29353;DHT22;16344;50.364;8.944;2022-10-16T17:41:25;17.50;1.00